Gaziantep International Airport

LTAJ · 加济安泰普省, 土耳其

罗盘
风向 的 风向 020° Gaziantep International Airport 10/28
风: 4 kt, 2 beaufort


4 kt
改变
0 ft 2.000 4.000 6.000 8.000 10.000
Cloud Cloud
FEW 4.000
Cloud Cloud Cloud Cloud Cloud Cloud
BKN 10.000
METAR LTAJ 231650Z 02004KT 9999 FEW040 BKN100 11/06 Q1022 NOSIG RMK RWY10 02004KT 2CU040 5AC100

METAR Gaziantep International Airport - LTAJ/GZT

Gaziantep International Airport是,土耳其中的中型机场。 该机场位于纬度36,94807和经度37,47842。 该机场有一条跑道: 10/28. 本场的ICAO机场代码为LTAJ。 该机场的IATA代码为GZT。 机场在Ankara FIR中。

该航空气象观测是针对Gaziantep International Airport在2024年2月23日 19:50, 当地时间进行的。

机场观察

风向为020°,速度为4 kt。

可见度为10 km 或者更多。

有几云在4.000 ft的高度 和 碎云在10.000 ft的高度。 破损或更高的上限为10.000 ft。

温度和风寒是11 °C。 露点为6 °C,相对湿度为72%。 海平面上的气压为1022 hPa (QNH)。

白天

今天,太阳从07:09升起,在18:17降落。 这适用于Gaziantep International Airport,世界夏令时可能有所不同。 当地时间与世界标准时间之间的时差为+3 小时。 当前,没有夏令时有效。

公司介绍

我们没有关于这个机场的公司信息。

体会

到Vliegles.nl去找飞行课程,跳伞和其他飞行体验。 浏览页面,了解Gaziantep International Airport附近所有可用的活动。 你也可以使用搜索功能来寻找你所在地附近的特定飞行课程、跳伞或其他飞行体验。

跑道

Id 标题 侧风 逆风 侧风 %
10/28 105°-285° 4 kt 100 %

逆风成分最大的方向会被突出显示,并用于横风计算。 这并不一定意味着这个方向在使用。

乌云

4.000 ft FEW 几云
10.000 ft BKN 碎云

温度 & 天气

温度 11 °C
露点 6 °C
相对湿度 72%
Kp-index 0 (0-9)

评论

RWY10 02004KT 2CU040 5AC100

白天

日出
07:09 (10:45)
中午
12:43
日落
18:17

小工具

你想在你的网站上有一个关于Gaziantep International Airport的当前航空天气(METAR)的小部件吗?

显示HTML代码
?>